Macon, Georgia
Current Conditions -  °F | °C
As of 11:17 PM on Sunday 21 Dec 2014 (Local Time) from KMCN Reporting Station
Light Rain Light Rain  
Wind Chill:   Ceiling: 600
Heat Index:   Visibility: 2.5mi
Dew Point:   Wind: 5mph
Humidity: 100%   Direction: 70°ENE
Pressure: 30.1"   Gusts: NA
Location:  32.84°N, 83.64°W
Report Text: KMCN 220417Z AUTO 07004KT 2 1/2SM -RA BR OVC006 08/08 A3010 RMK AO2 RAB02 P0001 TSNO $
Loading
Personal Weather Stations






























Interactive Weather Map New forecast layout! Learn more

10-Day Weather Forecast

Advertisements
Track Severe Weather on mobile